Time;durP1;ratioP1;P1;durP2;ratioP2;P2;SDS_P1;SDS_P2;PMS_P1;PMS_P2;Temp;Humidity;BMP_temperature;BMP_pressure;BME280_temperature;BME280_humidity;BME280_pressure;Samples;Min_cycle;Max_cycle;Signal;HPM_P1;HPM_P2
2022/10/12 00:00:49;;;;;;;20.27;11.68;;;;;;;4.81;78.40;99777.38;5104964;28;20105;-65
2022/10/12 00:03:16;;;;;;;18.75;9.57;;;;;;;4.82;78.18;99791.06;5087340;28;20031;-66
2022/10/12 00:05:42;;;;;;;23.00;10.43;;;;;;;4.76;78.76;99783.31;5094993;28;20051;-67
2022/10/12 00:08:07;;;;;;;16.50;9.68;;;;;;;4.69;78.39;99776.47;5092242;28;20250;-67
2022/10/12 00:10:33;;;;;;;13.02;8.30;;;;;;;4.66;78.57;99773.03;5101334;28;20035;-66
2022/10/12 00:12:59;;;;;;;17.77;9.05;;;;;;;4.62;78.29;99776.44;5084602;28;20028;-65
2022/10/12 00:15:25;;;;;;;13.50;8.35;;;;;;;4.63;78.82;99791.00;5102570;28;20020;-65
2022/10/12 00:17:52;;;;;;;18.00;10.35;;;;;;;4.55;78.65;99777.28;5089583;28;20064;-67
2022/10/12 00:20:18;;;;;;;16.98;9.35;;;;;;;4.60;77.90;99783.28;5091726;28;20316;-66
2022/10/12 00:22:44;;;;;;;17.77;8.95;;;;;;;4.57;77.78;99778.13;5091979;28;20089;-66
2022/10/12 00:25:09;;;;;;;17.48;9.48;;;;;;;4.54;78.44;99784.97;5084176;28;20105;-65
2022/10/12 00:27:36;;;;;;;17.70;8.65;;;;;;;4.50;78.54;99791.78;5104301;28;20039;-67
2022/10/12 00:30:01;;;;;;;18.55;8.75;;;;;;;4.38;79.10;99766.94;5089024;28;20028;-66
2022/10/12 00:32:29;;;;;;;14.88;8.75;;;;;;;4.51;78.87;99780.66;5101482;28;20224;-67
2022/10/12 00:34:55;;;;;;;19.50;9.05;;;;;;;4.48;78.68;99784.06;5104648;28;20139;-66
2022/10/12 00:37:20;;;;;;;18.23;8.98;;;;;;;4.26;79.36;99783.13;5103054;28;20099;-67
2022/10/12 00:39:47;;;;;;;18.25;8.93;;;;;;;4.42;79.04;99785.78;5084016;28;20035;-66
2022/10/12 00:42:13;;;;;;;17.90;8.30;;;;;;;4.46;79.76;99777.22;5083767;28;20039;-66
2022/10/12 00:44:44;;;;;;;22.17;9.20;;;;;;;4.46;78.56;99770.41;5095710;28;20527;-68
2022/10/12 00:47:18;;;;;;;16.17;9.17;;;;;;;4.54;79.03;99772.13;5104107;28;20055;-66
2022/10/12 00:49:49;;;;;;;17.65;9.15;;;;;;;4.42;78.59;99760.97;5099857;28;20433;-66
2022/10/12 00:52:17;;;;;;;17.92;9.05;;;;;;;4.50;79.34;99781.50;5097472;28;20047;-66
2022/10/12 00:54:47;;;;;;;17.80;9.57;;;;;;;4.28;79.18;99740.38;5099976;28;20034;-66
2022/10/12 00:57:15;;;;;;;15.48;8.60;;;;;;;4.56;79.48;99771.31;5104013;28;20035;-67
2022/10/12 01:00:08;;;;;;;20.73;9.43;;;;;;;4.59;78.32;99767.88;5091618;28;20031;-67
2022/10/12 01:02:36;;;;;;;18.70;9.60;;;;;;;4.57;78.70;99767.88;5094566;28;20023;-68
2022/10/12 01:05:03;;;;;;;17.55;9.07;;;;;;;4.54;79.20;99770.41;5095539;28;20031;-66
2022/10/12 01:07:30;;;;;;;16.45;9.88;;;;;;;4.51;79.56;99757.59;5084697;28;20031;-66
2022/10/12 01:09:55;;;;;;;15.27;9.60;;;;;;;4.51;79.44;99751.63;5104000;28;20113;-65
2022/10/12 01:12:22;;;;;;;16.95;9.93;;;;;;;4.55;78.80;99759.31;5085824;28;20321;-65
2022/10/12 01:14:48;;;;;;;25.50;10.88;;;;;;;4.51;79.53;99756.75;5096243;28;20027;-66
2022/10/12 01:17:23;;;;;;;20.40;11.00;;;;;;;4.41;78.88;99753.28;5095490;28;20028;-66
2022/10/12 01:19:55;;;;;;;17.58;10.05;;;;;;;4.47;79.10;99750.72;5088003;28;20196;-65
2022/10/12 01:22:21;;;;;;;21.75;10.25;;;;;;;4.51;78.49;99747.34;5100093;28;20039;-65
2022/10/12 01:25:18;;;;;;;19.95;10.57;;;;;;;4.52;79.24;99748.19;5103581;28;20020;-66
2022/10/12 01:27:54;;;;;;;17.95;10.93;;;;;;;4.45;79.25;99742.19;5083528;28;20032;-66
2022/10/12 01:30:42;;;;;;;17.95;9.48;;;;;;;4.56;78.79;99744.78;5099985;28;20317;-66
2022/10/12 01:33:39;;;;;;;16.17;10.45;;;;;;;4.48;79.04;99734.50;5083190;28;20028;-67
2022/10/12 01:36:16;;;;;;;18.25;9.48;;;;;;;4.54;78.38;99736.25;5098124;28;20031;-66
2022/10/12 01:38:52;;;;;;;20.15;10.10;;;;;;;4.45;78.99;99726.81;5091689;28;20332;-66
2022/10/12 01:41:29;;;;;;;18.13;9.57;;;;;;;4.40;79.24;99731.03;5091446;28;20027;-67
2022/10/12 01:43:54;;;;;;;21.00;10.45;;;;;;;4.44;79.25;99741.31;5098129;28;20305;-67
2022/10/12 01:46:20;;;;;;;19.65;10.48;;;;;;;4.45;78.65;99737.91;5083162;28;20093;-66
2022/10/12 01:48:50;;;;;;;18.80;9.88;;;;;;;4.38;78.41;99722.50;5102125;28;20091;-67
2022/10/12 01:51:23;;;;;;;21.85;11.15;;;;;;;4.22;79.32;99727.56;5086676;28;20332;-68
2022/10/12 01:54:03;;;;;;;17.60;9.88;;;;;;;4.23;79.13;99721.59;5095460;28;20035;-66
2022/10/12 01:57:07;;;;;;;22.05;10.15;;;;;;;4.25;79.65;99729.28;5092920;28;20060;-65
2022/10/12 01:59:47;;;;;;;17.88;9.82;;;;;;;4.30;79.23;99727.56;5093117;28;20374;-66
2022/10/12 02:02:41;;;;;;;20.05;10.32;;;;;;;4.31;78.56;99730.16;5095243;28;20032;-67
2022/10/12 02:05:25;;;;;;;15.82;10.18;;;;;;;4.29;79.09;99721.59;5087521;28;20036;-66
2022/10/12 02:08:09;;;;;;;21.00;10.52;;;;;;;4.27;78.93;99728.41;5087530;28;20028;-67
2022/10/12 02:10:41;;;;;;;20.70;10.05;;;;;;;4.18;78.82;99705.31;5100790;28;20055;-67
2022/10/12 02:13:11;;;;;;;19.23;9.52;;;;;;;4.27;78.48;99718.16;5098876;28;20025;-66
2022/10/12 02:15:38;;;;;;;21.13;10.50;;;;;;;4.29;78.57;99724.16;5101989;28;20058;-66
2022/10/12 02:18:06;;;;;;;19.10;9.93;;;;;;;4.18;78.89;99727.53;5098289;28;20196;-66
2022/10/12 02:20:33;;;;;;;14.45;9.95;;;;;;;4.22;79.36;99721.53;5106718;28;20224;-66
2022/10/12 02:23:20;;;;;;;19.60;10.85;;;;;;;4.08;78.90;99716.38;5102001;28;20024;-66
2022/10/12 02:25:48;;;;;;;24.30;10.13;;;;;;;4.13;78.55;99725.81;5102157;28;20052;-66
2022/10/12 02:28:17;;;;;;;18.90;10.35;;;;;;;4.13;79.31;99719.81;5085228;28;20033;-66
2022/10/12 02:30:52;;;;;;;19.25;9.93;;;;;;;4.16;78.76;99722.38;5106415;28;20331;-66
2022/10/12 02:33:26;;;;;;;18.75;10.43;;;;;;;4.15;78.49;99713.00;5106334;28;20196;-66
2022/10/12 02:35:57;;;;;;;17.80;9.43;;;;;;;4.17;79.01;99726.66;5093781;28;20058;-66
2022/10/12 02:38:37;;;;;;;17.33;10.02;;;;;;;4.03;78.86;99707.78;5094928;28;20787;-66
2022/10/12 02:41:08;;;;;;;16.70;9.57;;;;;;;3.97;79.50;99706.06;5100924;28;20037;-67
2022/10/12 02:43:39;;;;;;;15.13;9.95;;;;;;;3.94;79.22;99699.19;5088397;28;20209;-66
2022/10/12 02:46:08;;;;;;;19.10;9.98;;;;;;;4.08;79.04;99716.38;5086030;28;20055;-66
2022/10/12 02:48:36;;;;;;;16.52;9.85;;;;;;;3.95;78.96;99693.25;5104385;28;20047;-66
2022/10/12 02:51:03;;;;;;;18.17;10.65;;;;;;;4.10;78.52;99709.53;5106317;28;20087;-66
2022/10/12 02:53:29;;;;;;;18.25;10.55;;;;;;;4.16;78.38;99712.13;5106364;28;20031;-65
2022/10/12 02:56:24;;;;;;;22.17;9.30;;;;;;;4.15;79.16;99711.28;5117220;28;20035;-66
2022/10/12 02:58:50;;;;;;;17.25;9.70;;;;;;;4.14;78.88;99712.13;5076815;28;20035;-66
2022/10/12 03:01:16;;;;;;;17.55;10.27;;;;;;;4.02;78.76;99711.19;5106031;28;20158;-66
2022/10/12 03:03:42;;;;;;;19.77;11.10;;;;;;;4.00;78.98;99720.59;5086652;28;20028;-67
2022/10/12 03:06:08;;;;;;;21.33;9.88;;;;;;;3.98;79.32;99713.75;5093403;28;20283;-66
2022/10/12 03:08:34;;;;;;;17.33;9.68;;;;;;;3.97;80.27;99717.16;5085614;28;20048;-67
2022/10/12 03:11:05;;;;;;;21.52;11.23;;;;;;;3.80;79.69;99693.13;5098243;28;20188;-66
2022/10/12 03:13:31;;;;;;;21.08;10.75;;;;;;;3.95;80.08;99718.00;5085034;28;20205;-67
2022/10/12 03:16:04;;;;;;;18.58;9.93;;;;;;;3.84;79.28;99694.88;5105520;28;20059;-67
2022/10/12 03:18:31;;;;;;;24.92;11.82;;;;;;;3.97;80.00;99718.88;5086453;28;20047;-67
2022/10/12 03:20:57;;;;;;;25.90;10.95;;;;;;;3.97;79.66;99706.06;5085684;28;20232;-67
2022/10/12 03:23:23;;;;;;;23.20;12.13;;;;;;;3.97;79.31;99718.88;5093208;28;20020;-68
2022/10/12 03:25:48;;;;;;;22.55;11.70;;;;;;;3.92;79.43;99702.59;5102733;28;20029;-66
2022/10/12 03:28:14;;;;;;;22.08;11.88;;;;;;;3.95;79.20;99713.72;5084932;28;20028;-67
2022/10/12 03:30:39;;;;;;;20.52;10.52;;;;;;;3.91;79.23;99718.84;5103968;28;20031;-68
2022/10/12 03:33:05;;;;;;;23.05;11.43;;;;;;;3.89;79.63;99698.34;5105427;28;20020;-68
2022/10/12 03:35:31;;;;;;;27.55;11.32;;;;;;;3.96;79.49;99712.91;5095941;28;20055;-67
2022/10/12 03:37:56;;;;;;;20.13;11.77;;;;;;;4.03;79.00;99718.03;5089456;28;20024;-67
2022/10/12 03:40:22;;;;;;;18.75;10.77;;;;;;;3.98;79.46;99711.19;5104880;28;20216;-67
2022/10/12 03:42:47;;;;;;;15.70;10.25;;;;;;;4.01;79.20;99715.47;5085599;28;20066;-66
2022/10/12 03:45:13;;;;;;;20.35;11.15;;;;;;;3.98;79.11;99716.31;5083762;28;20618;-66
2022/10/12 03:47:39;;;;;;;20.65;11.07;;;;;;;4.00;79.73;99718.03;5093652;28;20037;-66
2022/10/12 03:50:05;;;;;;;16.63;10.98;;;;;;;4.03;79.45;99723.16;5099661;28;20102;-66
2022/10/12 03:52:30;;;;;;;25.48;11.20;;;;;;;3.97;79.39;99721.44;5085262;28;20040;-66
2022/10/12 03:54:56;;;;;;;20.00;11.65;;;;;;;3.97;79.69;99719.72;5104948;28;20058;-66
2022/10/12 03:57:22;;;;;;;24.02;11.77;;;;;;;4.00;79.00;99718.03;5090358;28;20028;-66
2022/10/12 03:59:47;;;;;;;21.13;11.82;;;;;;;3.97;79.43;99719.72;5093163;28;20332;-66
2022/10/12 04:02:13;;;;;;;20.17;11.10;;;;;;;3.96;78.63;99712.00;5084564;28;20032;-64
2022/10/12 04:04:38;;;;;;;19.95;12.10;;;;;;;3.75;78.85;99703.38;5085158;28;20036;-66
2022/10/12 04:07:04;;;;;;;23.20;11.80;;;;;;;3.85;78.88;99706.84;5091033;28;20259;-66
2022/10/12 04:09:30;;;;;;;24.90;11.95;;;;;;;3.84;80.40;99709.41;5101560;28;20032;-65
2022/10/12 04:11:55;;;;;;;18.17;11.55;;;;;;;3.88;79.90;99713.69;5092177;28;20311;-66
2022/10/12 04:14:21;;;;;;;21.40;12.15;;;;;;;3.88;80.58;99713.69;5100943;28;20031;-66
2022/10/12 04:16:46;;;;;;;26.42;11.75;;;;;;;3.89;80.23;99703.47;5101858;28;20070;-66
2022/10/12 04:19:12;;;;;;;18.48;11.25;;;;;;;3.98;79.83;99716.31;5084354;28;20032;-66
2022/10/12 04:21:39;;;;;;;21.48;11.25;;;;;;;3.97;79.84;99717.16;5083970;28;20236;-66
2022/10/12 04:24:05;;;;;;;19.83;11.48;;;;;;;4.03;79.53;99723.16;5088894;28;20316;-66
2022/10/12 04:26:30;;;;;;;24.17;12.18;;;;;;;4.05;79.46;99713.81;5083640;28;20109;-66
2022/10/12 04:28:56;;;;;;;25.88;12.10;;;;;;;4.06;79.73;99723.19;5083976;28;20030;-66
2022/10/12 04:31:22;;;;;;;23.30;12.75;;;;;;;4.09;79.62;99718.94;5092048;28;20216;-66
2022/10/12 04:33:47;;;;;;;24.20;12.68;;;;;;;4.10;79.74;99725.75;5104281;28;20044;-66
2022/10/12 04:36:13;;;;;;;29.98;12.68;;;;;;;4.13;79.44;99723.25;5103863;28;20047;-66
2022/10/12 04:38:39;;;;;;;30.10;12.90;;;;;;;4.15;79.13;99718.13;5093218;28;20032;-66
2022/10/12 04:41:05;;;;;;;27.83;12.82;;;;;;;4.25;79.20;99714.75;5086335;28;20020;-67
2022/10/12 04:43:30;;;;;;;23.77;12.73;;;;;;;4.26;80.17;99715.59;5091725;28;20094;-67
2022/10/12 04:45:57;;;;;;;25.80;12.43;;;;;;;4.24;79.42;99704.50;5088814;28;20269;-67
2022/10/12 04:48:24;;;;;;;22.10;13.02;;;;;;;4.31;80.26;99725.03;5093345;28;20119;-66
2022/10/12 04:50:51;;;;;;;30.20;13.20;;;;;;;4.37;80.90;99719.06;5095150;28;20016;-67
2022/10/12 04:53:16;;;;;;;22.08;12.60;;;;;;;4.44;81.03;99725.09;5096857;28;20028;-68
2022/10/12 04:55:42;;;;;;;22.15;12.55;;;;;;;4.52;80.99;99720.84;5083753;28;20358;-67
2022/10/12 04:58:07;;;;;;;24.75;12.82;;;;;;;4.55;80.45;99717.44;5083689;28;20091;-68
2022/10/12 05:00:33;;;;;;;26.40;13.93;;;;;;;4.62;80.79;99714.88;5100314;28;20489;-67
2022/10/12 05:02:59;;;;;;;26.83;14.23;;;;;;;4.75;80.28;99722.63;5090978;28;20196;-68
2022/10/12 05:05:24;;;;;;;24.00;12.45;;;;;;;4.90;81.05;99716.66;5098876;28;20086;-66
2022/10/12 05:07:50;;;;;;;24.23;12.00;;;;;;;5.05;80.42;99713.28;5085740;28;20208;-67
2022/10/12 05:10:17;;;;;;;21.30;12.45;;;;;;;5.12;81.13;99715.00;5102956;28;20024;-68
2022/10/12 05:12:42;;;;;;;29.67;14.07;;;;;;;5.29;81.74;99721.00;5090406;28;20027;-68
2022/10/12 05:15:09;;;;;;;27.73;14.25;;;;;;;5.38;81.76;99721.88;5084584;28;20036;-68
2022/10/12 05:17:35;;;;;;;31.13;13.38;;;;;;;5.54;82.07;99731.28;5092025;28;20032;-67
2022/10/12 05:20:01;;;;;;;23.63;12.68;;;;;;;5.68;81.32;99726.13;5099067;28;20040;-68
2022/10/12 05:22:26;;;;;;;25.58;13.70;;;;;;;5.72;81.86;99716.72;5087434;28;20027;-66
2022/10/12 05:24:52;;;;;;;27.80;14.35;;;;;;;5.90;82.02;99726.97;5083629;28;20028;-68
2022/10/12 05:27:17;;;;;;;35.75;14.13;;;;;;;6.10;81.19;99728.66;5082748;28;20028;-67
2022/10/12 05:29:43;;;;;;;33.50;16.27;;;;;;;6.18;81.07;99716.66;5092786;28;20068;-68
2022/10/12 05:32:09;;;;;;;31.98;15.45;;;;;;;6.30;80.18;99710.59;5102837;28;20035;-68
2022/10/12 05:34:34;;;;;;;32.72;15.00;;;;;;;6.52;80.10;99711.38;5102306;28;20108;-67
2022/10/12 05:37:00;;;;;;;23.98;12.80;;;;;;;6.71;78.76;99715.59;5082874;28;20036;-67
2022/10/12 05:39:26;;;;;;;27.42;13.57;;;;;;;6.88;79.65;99712.91;5098326;28;20020;-67
2022/10/12 05:41:53;;;;;;;27.85;14.18;;;;;;;6.96;80.10;99710.28;5092417;28;20031;-68
2022/10/12 05:44:19;;;;;;;25.85;11.63;;;;;;;7.06;77.28;99711.94;5089047;28;20052;-67
2022/10/12 05:46:45;;;;;;;16.52;11.07;;;;;;;7.15;75.37;99712.72;5100585;28;20038;-66
2022/10/12 05:49:10;;;;;;;20.00;11.07;;;;;;;7.30;74.99;99715.19;5082939;28;20052;-68
2022/10/12 05:51:37;;;;;;;18.80;12.10;;;;;;;7.34;74.44;99714.31;5102115;28;20078;-68
2022/10/12 05:54:03;;;;;;;20.98;12.43;;;;;;;7.49;74.65;99712.47;5107206;28;20333;-67
2022/10/12 05:56:29;;;;;;;19.33;11.75;;;;;;;7.62;73.44;99713.22;5099198;28;20028;-67
2022/10/12 05:58:55;;;;;;;22.63;11.93;;;;;;;7.70;74.12;99716.59;5086972;28;20439;-68
2022/10/12 06:01:21;;;;;;;22.38;11.73;;;;;;;7.83;73.34;99718.19;5086915;28;20047;-67
2022/10/12 06:03:46;;;;;;;20.90;10.90;;;;;;;7.89;72.99;99714.69;5105386;28;20020;-67
2022/10/12 06:06:12;;;;;;;19.33;12.18;;;;;;;7.97;73.08;99715.47;5092948;28;20033;-67
2022/10/12 06:08:38;;;;;;;25.05;11.88;;;;;;;8.05;72.86;99712.78;5094213;28;20058;-67
2022/10/12 06:11:04;;;;;;;19.77;11.13;;;;;;;8.13;71.79;99711.00;5103009;28;20024;-67
2022/10/12 06:13:29;;;;;;;21.02;12.32;;;;;;;8.28;73.15;99715.97;5084632;28;20058;-67
2022/10/12 06:15:55;;;;;;;22.13;11.98;;;;;;;8.33;72.24;99705.59;5085238;28;20032;-68
2022/10/12 06:18:21;;;;;;;23.27;12.18;;;;;;;8.53;71.84;99707.13;5101203;28;20024;-68
2022/10/12 06:20:50;;;;;;;19.38;11.80;;;;;;;8.55;71.57;99695.91;5096822;28;20033;-68
2022/10/12 06:23:16;;;;;;;19.25;11.45;;;;;;;8.77;71.76;99709.38;5092448;28;20220;-67
2022/10/12 06:25:44;;;;;;;19.13;11.15;;;;;;;9.23;69.86;99707.00;5086401;28;20032;-68
2022/10/12 06:28:09;;;;;;;21.60;11.57;;;;;;;9.62;68.08;99705.50;5087109;28;20032;-68
2022/10/12 06:30:35;;;;;;;20.65;11.88;;;;;;;10.05;66.80;99709.03;5090999;28;20320;-68
2022/10/12 06:33:00;;;;;;;20.35;11.80;;;;;;;10.16;66.71;99707.09;5106426;28;20027;-68
2022/10/12 06:35:26;;;;;;;21.45;12.35;;;;;;;10.36;65.95;99701.56;5099352;28;20028;-68
2022/10/12 06:37:52;;;;;;;20.17;11.48;;;;;;;11.37;64.04;99699.31;5086182;28;20047;-68
2022/10/12 06:40:18;;;;;;;26.23;12.40;;;;;;;12.01;63.19;99699.41;5085842;28;20106;-67
2022/10/12 06:42:44;;;;;;;22.48;11.25;;;;;;;11.68;63.40;99690.75;5103634;28;20096;-68
2022/10/12 06:45:10;;;;;;;22.83;12.02;;;;;;;11.89;62.42;99697.97;5093450;28;20388;-68
2022/10/12 06:47:36;;;;;;;20.95;11.80;;;;;;;11.81;61.56;99691.28;5093949;28;20047;-68
2022/10/12 06:50:01;;;;;;;24.45;12.43;;;;;;;11.72;61.70;99701.00;5102755;28;20033;-68
2022/10/12 06:52:27;;;;;;;22.30;12.48;;;;;;;11.53;60.92;99694.63;5085597;28;20024;-68
2022/10/12 06:54:52;;;;;;;22.60;11.25;;;;;;;11.47;60.60;99700.81;5104608;28;20316;-68
2022/10/12 06:57:18;;;;;;;22.42;11.55;;;;;;;11.27;61.25;99675.34;5091857;28;20309;-68
2022/10/12 06:59:44;;;;;;;22.48;11.30;;;;;;;11.49;61.12;99703.38;5092949;28;20032;-68
2022/10/12 07:02:10;;;;;;;22.00;10.80;;;;;;;11.56;60.55;99694.53;5089121;28;20093;-68
2022/10/12 07:04:35;;;;;;;16.00;9.88;;;;;;;11.49;59.38;99693.00;5106108;28;20120;-68
2022/10/12 07:07:01;;;;;;;19.00;9.27;;;;;;;11.54;58.94;99694.56;5092507;28;20056;-68
2022/10/12 07:09:27;;;;;;;21.33;10.15;;;;;;;11.47;58.60;99685.25;5085523;28;20205;-68
2022/10/12 07:11:54;;;;;;;16.88;9.43;;;;;;;11.67;58.34;99695.13;5084313;28;20078;-68
2022/10/12 07:14:20;;;;;;;20.90;8.45;;;;;;;12.17;56.71;99689.50;5090831;28;20300;-68
2022/10/12 07:16:46;;;;;;;15.40;8.60;;;;;;;12.12;55.06;99693.09;5086574;28;20028;-68
2022/10/12 07:19:12;;;;;;;17.65;8.93;;;;;;;12.17;58.00;99694.69;5085776;28;20091;-68
2022/10/12 07:21:37;;;;;;;16.90;8.63;;;;;;;12.11;57.76;99697.44;5100670;28;20047;-68
2022/10/12 07:24:04;;;;;;;24.75;10.18;;;;;;;12.21;56.87;99700.63;5098908;28;20036;-68
2022/10/12 07:26:30;;;;;;;20.85;10.02;;;;;;;12.16;55.71;99694.72;5097061;28;20032;-67
2022/10/12 07:28:56;;;;;;;21.70;10.30;;;;;;;12.15;56.02;99693.84;5087530;28;20051;-68
2022/10/12 07:31:23;;;;;;;21.80;9.88;;;;;;;12.19;56.06;99697.22;5104615;28;20020;-68
2022/10/12 07:33:49;;;;;;;19.67;9.27;;;;;;;12.08;55.68;99687.13;5104093;28;20040;-68
2022/10/12 07:36:14;;;;;;;19.27;9.95;;;;;;;12.14;55.52;99691.31;5105318;28;20038;-68
2022/10/12 07:38:44;;;;;;;21.23;10.80;;;;;;;12.22;55.75;99689.34;5105271;28;20036;-67
2022/10/12 07:41:10;;;;;;;21.05;10.27;;;;;;;12.49;54.86;99684.25;5099844;28;20102;-68
2022/10/12 07:43:37;;;;;;;21.60;10.70;;;;;;;12.49;55.37;99690.31;5084831;28;20091;-67
2022/10/12 07:46:03;;;;;;;18.70;9.82;;;;;;;12.54;53.80;99683.22;5083878;28;20035;-68
2022/10/12 07:48:29;;;;;;;17.80;9.88;;;;;;;12.54;53.84;99678.03;5099336;28;20098;-68
2022/10/12 07:50:55;;;;;;;14.20;9.80;;;;;;;12.48;54.30;99685.16;5094456;28;20024;-68
2022/10/12 07:53:20;;;;;;;17.50;9.30;;;;;;;12.62;54.49;99687.34;5090111;28;20177;-68
2022/10/12 07:55:46;;;;;;;14.70;8.60;;;;;;;12.74;54.95;99685.22;5104107;28;20151;-68
2022/10/12 07:58:12;;;;;;;19.48;8.02;;;;;;;12.68;53.42;99679.38;5084412;28;20328;-68
2022/10/12 08:00:38;;;;;;;15.57;7.22;;;;;;;12.70;50.78;99687.97;5084284;28;20249;-68
2022/10/12 08:03:04;;;;;;;10.13;4.85;;;;;;;12.75;51.74;99686.94;5094510;28;20319;-68
2022/10/12 08:05:29;;;;;;;9.43;4.55;;;;;;;12.88;49.11;99677.03;5103411;28;20024;-68
2022/10/12 08:07:55;;;;;;;9.80;4.22;;;;;;;13.13;47.58;99684.88;5084440;28;20340;-68
2022/10/12 08:10:21;;;;;;;11.23;4.57;;;;;;;13.26;48.52;99682.72;5084190;28;20099;-69
2022/10/12 08:12:47;;;;;;;8.90;4.70;;;;;;;13.60;49.59;99683.41;5100934;28;20063;-67
2022/10/12 08:15:14;;;;;;;8.43;4.72;;;;;;;13.70;47.90;99678.75;5091313;28;20032;-68
2022/10/12 08:17:39;;;;;;;8.68;4.60;;;;;;;13.66;47.91;99684.94;5084320;28;20032;-69
2022/10/12 08:20:06;;;;;;;9.00;3.83;;;;;;;13.56;46.57;99679.19;5087372;28;20065;-68
2022/10/12 08:22:31;;;;;;;7.68;3.90;;;;;;;13.54;47.33;99679.25;5098605;28;20028;-68
2022/10/12 08:24:57;;;;;;;9.15;4.13;;;;;;;13.44;47.43;99683.06;5101845;28;20215;-67
2022/10/12 08:27:22;;;;;;;5.68;3.70;;;;;;;13.38;46.99;99684.13;5089960;28;20044;-68
2022/10/12 08:29:48;;;;;;;9.40;4.20;;;;;;;13.41;47.45;99686.63;5093228;28;20024;-69
2022/10/12 08:32:14;;;;;;;9.02;4.88;;;;;;;13.44;47.59;99676.09;5101382;28;20028;-68
2022/10/12 08:34:40;;;;;;;12.75;4.00;;;;;;;13.47;46.85;99672.56;5104200;28;20052;-68
2022/10/12 08:37:05;;;;;;;7.80;3.78;;;;;;;13.54;48.79;99673.19;5097929;28;20028;-69
2022/10/12 08:39:31;;;;;;;6.70;3.53;;;;;;;13.61;47.59;99680.75;5092855;28;20063;-67
2022/10/12 08:42:38;;;;;;;7.68;4.07;;;;;;;13.59;47.54;99674.72;5075813;28;20031;-68
2022/10/12 08:45:22;;;;;;;9.93;3.88;;;;;;;13.61;48.39;99675.53;5066585;28;20162;-68
2022/10/12 08:48:13;;;;;;;7.15;2.80;;;;;;;13.48;47.74;99669.03;5093656;28;20020;-68
2022/10/12 08:50:48;;;;;;;6.60;3.28;;;;;;;13.41;47.47;99660.59;5091730;28;20074;-68
2022/10/12 08:53:22;;;;;;;5.65;2.55;;;;;;;13.48;48.60;99669.03;5093874;28;20096;-68
2022/10/12 08:55:48;;;;;;;4.65;2.63;;;;;;;13.43;48.75;99679.59;5094165;28;20095;-68
2022/10/12 08:58:29;;;;;;;4.68;2.38;;;;;;;13.39;48.48;99670.19;5093253;28;20028;-70
2022/10/12 09:01:01;;;;;;;5.95;2.80;;;;;;;13.37;48.73;99676.38;5092027;28;20020;-68
2022/10/12 09:03:48;;;;;;;;;;;;;;;13.32;48.58;99675.63;5095718;28;20023;-68
2022/10/12 09:06:23;;;;;;;7.25;3.08;;;;;;;13.24;48.74;99660.25;5077662;28;19968;-69
2022/10/12 09:09:08;;;;;;;5.82;3.40;;;;;;;13.24;49.77;99660.25;5092345;28;20031;-68
2022/10/12 09:11:56;;;;;;;5.35;2.47;;;;;;;13.33;51.27;99674.75;5091690;28;20312;-68
2022/10/12 09:14:27;;;;;;;3.72;2.13;;;;;;;13.08;50.19;99657.31;5092547;28;20020;-68
2022/10/12 09:16:54;;;;;;;8.23;2.92;;;;;;;13.16;49.53;99659.69;5092146;28;20027;-68
2022/10/12 09:19:35;;;;;;;5.60;2.80;;;;;;;13.05;50.14;99658.25;5092357;28;20104;-68
2022/10/12 09:22:03;;;;;;;5.38;3.40;;;;;;;13.09;51.30;99666.81;5092934;28;20023;-68
2022/10/12 09:24:34;;;;;;;7.75;3.45;;;;;;;13.10;51.72;99660.72;5091622;28;20024;-68
2022/10/12 09:27:12;;;;;;;6.63;3.58;;;;;;;13.16;50.87;99667.50;5092794;28;20027;-68
2022/10/12 09:29:38;;;;;;;10.25;4.20;;;;;;;13.16;50.59;99678.72;5091973;28;20031;-68
2022/10/12 09:32:36;;;;;;;8.88;4.30;;;;;;;13.06;51.61;99678.16;5088402;28;20032;-67
2022/10/12 09:35:04;;;;;;;10.75;4.72;;;;;;;13.08;53.00;99673.78;5083377;28;20041;-68
2022/10/12 09:37:32;;;;;;;10.85;4.88;;;;;;;13.16;52.76;99683.94;5102870;28;20063;-68
2022/10/12 09:39:58;;;;;;;9.85;5.70;;;;;;;13.17;52.28;99677.84;5081670;28;20131;-68
2022/10/12 09:42:24;;;;;;;15.18;6.68;;;;;;;13.21;52.70;99682.03;5096063;28;20036;-68
2022/10/12 09:45:17;;;;;;;12.13;6.70;;;;;;;13.24;52.34;99681.94;5099834;28;20036;-68
2022/10/12 09:48:08;;;;;;;14.30;7.63;;;;;;;13.32;53.24;99673.03;5088718;28;20040;-68
2022/10/12 09:50:54;;;;;;;13.50;6.45;;;;;;;13.32;53.12;99670.44;5092136;28;20027;-68
2022/10/12 09:53:39;;;;;;;11.13;5.35;;;;;;;13.39;53.33;99674.56;5093281;28;20044;-68
2022/10/12 09:56:21;;;;;;;14.55;6.30;;;;;;;13.40;52.46;99682.31;5093153;28;20036;-67
2022/10/12 09:58:55;;;;;;;16.15;7.03;;;;;;;13.36;52.41;99685.91;5091967;28;20059;-67
2022/10/12 10:01:20;;;;;;;16.25;7.25;;;;;;;13.40;52.22;99684.06;5093027;28;20212;-68
2022/10/12 10:04:14;;;;;;;14.70;7.40;;;;;;;13.44;52.56;99675.28;5091428;28;20031;-66
2022/10/12 10:06:45;;;;;;;15.05;7.35;;;;;;;13.44;52.13;99681.31;5093055;28;20050;-68
2022/10/12 10:09:29;;;;;;;15.52;6.90;;;;;;;13.50;53.38;99688.06;5092631;28;20031;-68
2022/10/12 10:11:57;;;;;;;12.40;5.07;;;;;;;13.40;52.51;99678.88;5092988;28;20044;-68
2022/10/12 10:14:23;;;;;;;13.38;5.60;;;;;;;13.36;51.72;99679.88;5090837;28;20012;-68
2022/10/12 10:16:51;;;;;;;6.82;4.80;;;;;;;13.35;52.62;99667.75;5092222;28;20027;-68
2022/10/12 10:19:21;;;;;;;9.98;5.05;;;;;;;13.35;51.71;99688.56;5093260;28;20036;-68
2022/10/12 10:21:47;;;;;;;10.43;5.78;;;;;;;13.08;52.51;99686.78;5092472;28;20069;-68
2022/10/12 10:24:26;;;;;;;10.65;5.55;;;;;;;13.19;52.51;99690.78;5083320;28;20040;-67
2022/10/12 10:26:56;;;;;;;11.40;6.18;;;;;;;13.16;52.47;99688.28;5090963;28;20031;-67
2022/10/12 10:29:31;;;;;;;8.13;5.22;;;;;;;13.25;52.73;99691.44;5097176;28;20052;-67
2022/10/12 10:32:25;;;;;;;8.90;6.07;;;;;;;13.28;52.82;99698.28;5095665;28;20209;-68
2022/10/12 10:35:19;;;;;;;9.98;5.78;;;;;;;13.19;53.72;99691.63;5102647;28;20066;-68
2022/10/12 10:37:50;;;;;;;14.20;6.30;;;;;;;13.22;52.84;99691.53;5084170;28;20028;-68
2022/10/12 10:40:31;;;;;;;16.80;6.97;;;;;;;13.05;54.25;99686.84;5101054;28;20055;-67
2022/10/12 10:43:02;;;;;;;11.45;6.45;;;;;;;13.07;52.86;99684.25;5088985;28;20051;-67
2022/10/12 10:45:46;;;;;;;15.13;6.97;;;;;;;12.98;53.89;99689.72;5085527;28;20028;-68
2022/10/12 10:48:19;;;;;;;11.68;6.63;;;;;;;13.09;54.73;99698.88;5097157;28;20308;-69
2022/10/12 10:50:55;;;;;;;16.05;7.18;;;;;;;13.12;54.14;99697.94;5099048;28;20028;-68
2022/10/12 10:53:24;;;;;;;16.27;7.07;;;;;;;13.00;53.67;99690.50;5088178;28;20063;-67
2022/10/12 10:56:00;;;;;;;13.32;6.82;;;;;;;12.98;53.75;99700.13;5094504;28;20232;-68
2022/10/12 10:58:37;;;;;;;13.38;6.32;;;;;;;12.94;54.23;99702.81;5095074;28;20205;-67
2022/10/12 11:01:14;;;;;;;14.43;6.15;;;;;;;12.83;54.89;99686.69;5094933;28;20201;-68
2022/10/12 11:03:44;;;;;;;12.05;5.63;;;;;;;12.86;55.30;99703.94;5096274;28;20062;-68
2022/10/12 11:06:34;;;;;;;10.45;5.75;;;;;;;12.68;56.17;99703.59;5095552;28;20017;-69
2022/10/12 11:09:21;;;;;;;11.07;5.85;;;;;;;12.67;55.79;99688.03;5095368;28;20020;-67
2022/10/12 11:11:54;;;;;;;12.13;5.63;;;;;;;12.72;55.32;99683.56;5094003;28;20028;-67
2022/10/12 11:14:27;;;;;;;13.10;5.90;;;;;;;12.65;54.93;99682.06;5093380;28;20092;-68
2022/10/12 11:17:02;;;;;;;9.40;5.50;;;;;;;12.73;55.92;99695.69;5088151;28;20088;-68
2022/10/12 11:19:46;;;;;;;12.68;6.10;;;;;;;12.75;56.58;99688.66;5085222;28;20050;-67
2022/10/12 11:22:20;;;;;;;13.07;6.82;;;;;;;12.66;56.28;99679.41;5093536;28;20328;-68
2022/10/12 11:25:07;;;;;;;13.88;6.20;;;;;;;12.73;56.13;99682.69;5090187;28;20028;-68
2022/10/12 11:27:36;;;;;;;12.32;7.05;;;;;;;12.77;55.62;99703.31;5083849;28;20070;-67
2022/10/12 11:30:11;;;;;;;13.25;6.97;;;;;;;12.85;55.32;99713.47;5092954;28;20039;-68
2022/10/12 11:33:04;;;;;;;16.50;7.53;;;;;;;12.85;56.35;99710.88;5105011;28;20674;-67
2022/10/12 11:35:51;;;;;;;12.07;4.88;;;;;;;12.81;57.15;99719.66;5096920;28;20309;-68
2022/10/12 11:38:40;;;;;;;9.57;4.32;;;;;;;12.71;56.36;99719.13;5102110;28;20044;-67
2022/10/12 11:41:23;;;;;;;13.43;4.93;;;;;;;12.74;57.79;99724.22;5084943;28;20036;-67